sensor_id;sensor_type;location;lat;lon;timestamp;temperature;humidity
17348;DHT22;8791;50.876;4.342;2023-02-13T00:01:10;7.50;99.90
17348;DHT22;8791;50.876;4.342;2023-02-13T00:03:38;7.40;99.90
17348;DHT22;8791;50.876;4.342;2023-02-13T00:06:05;7.40;99.90
17348;DHT22;8791;50.876;4.342;2023-02-13T00:08:32;7.40;99.90
17348;DHT22;8791;50.876;4.342;2023-02-13T00:10:58;7.40;99.90
17348;DHT22;8791;50.876;4.342;2023-02-13T00:13:25;7.40;99.90
17348;DHT22;8791;50.876;4.342;2023-02-13T00:15:56;7.40;99.90
17348;DHT22;8791;50.876;4.342;2023-02-13T00:18:24;7.30;99.90
17348;DHT22;8791;50.876;4.342;2023-02-13T00:21:00;7.30;99.90
17348;DHT22;8791;50.876;4.342;2023-02-13T00:23:29;7.30;99.90
17348;DHT22;8791;50.876;4.342;2023-02-13T00:25:56;7.40;99.90
17348;DHT22;8791;50.876;4.342;2023-02-13T00:28:23;7.40;99.90
17348;DHT22;8791;50.876;4.342;2023-02-13T00:30:50;7.40;99.90
17348;DHT22;8791;50.876;4.342;2023-02-13T00:33:17;7.20;99.90
17348;DHT22;8791;50.876;4.342;2023-02-13T00:35:43;7.10;99.90
17348;DHT22;8791;50.876;4.342;2023-02-13T00:38:12;7.00;99.90
17348;DHT22;8791;50.876;4.342;2023-02-13T00:40:39;6.90;99.90
17348;DHT22;8791;50.876;4.342;2023-02-13T00:43:05;6.90;99.90
17348;DHT22;8791;50.876;4.342;2023-02-13T00:45:33;6.90;99.90
17348;DHT22;8791;50.876;4.342;2023-02-13T00:47:59;7.10;99.90
17348;DHT22;8791;50.876;4.342;2023-02-13T00:50:26;7.10;99.90
17348;DHT22;8791;50.876;4.342;2023-02-13T00:52:53;7.00;99.90
17348;DHT22;8791;50.876;4.342;2023-02-13T00:55:22;6.90;99.90
17348;DHT22;8791;50.876;4.342;2023-02-13T00:57:48;6.90;99.90
17348;DHT22;8791;50.876;4.342;2023-02-13T01:00:16;7.00;99.90
17348;DHT22;8791;50.876;4.342;2023-02-13T01:02:43;6.90;99.90
17348;DHT22;8791;50.876;4.342;2023-02-13T01:05:09;6.70;99.90
17348;DHT22;8791;50.876;4.342;2023-02-13T01:07:36;6.70;99.90
17348;DHT22;8791;50.876;4.342;2023-02-13T01:10:04;6.70;99.90
17348;DHT22;8791;50.876;4.342;2023-02-13T01:12:32;6.70;99.90
17348;DHT22;8791;50.876;4.342;2023-02-13T01:14:59;6.60;99.90
17348;DHT22;8791;50.876;4.342;2023-02-13T01:17:25;6.70;99.90
17348;DHT22;8791;50.876;4.342;2023-02-13T01:19:53;6.70;99.90
17348;DHT22;8791;50.876;4.342;2023-02-13T01:22:19;6.70;99.90
17348;DHT22;8791;50.876;4.342;2023-02-13T01:24:46;6.70;99.90
17348;DHT22;8791;50.876;4.342;2023-02-13T01:27:13;6.70;99.90
17348;DHT22;8791;50.876;4.342;2023-02-13T01:29:41;6.60;99.90
17348;DHT22;8791;50.876;4.342;2023-02-13T01:32:08;6.50;99.90
17348;DHT22;8791;50.876;4.342;2023-02-13T01:34:35;6.40;99.90
17348;DHT22;8791;50.876;4.342;2023-02-13T01:37:01;6.40;99.90
17348;DHT22;8791;50.876;4.342;2023-02-13T01:39:28;6.50;99.90
17348;DHT22;8791;50.876;4.342;2023-02-13T01:41:55;6.50;99.90
17348;DHT22;8791;50.876;4.342;2023-02-13T01:44:52;6.50;99.90
17348;DHT22;8791;50.876;4.342;2023-02-13T01:47:23;6.40;99.90
17348;DHT22;8791;50.876;4.342;2023-02-13T01:49:59;6.40;99.90
17348;DHT22;8791;50.876;4.342;2023-02-13T01:52:28;6.40;99.90
17348;DHT22;8791;50.876;4.342;2023-02-13T01:54:55;6.40;99.90
17348;DHT22;8791;50.876;4.342;2023-02-13T01:57:24;6.50;99.90
17348;DHT22;8791;50.876;4.342;2023-02-13T01:59:58;6.40;99.90
17348;DHT22;8791;50.876;4.342;2023-02-13T02:02:26;6.40;99.90
17348;DHT22;8791;50.876;4.342;2023-02-13T02:04:53;6.50;99.90
17348;DHT22;8791;50.876;4.342;2023-02-13T02:07:23;6.50;99.90
17348;DHT22;8791;50.876;4.342;2023-02-13T02:09:53;6.40;99.90
17348;DHT22;8791;50.876;4.342;2023-02-13T02:12:24;6.30;99.90
17348;DHT22;8791;50.876;4.342;2023-02-13T02:14:52;6.20;99.90
17348;DHT22;8791;50.876;4.342;2023-02-13T02:17:23;6.20;99.90
17348;DHT22;8791;50.876;4.342;2023-02-13T02:19:58;6.20;99.90
17348;DHT22;8791;50.876;4.342;2023-02-13T02:22:59;6.20;99.90
17348;DHT22;8791;50.876;4.342;2023-02-13T02:25:51;6.30;99.90
17348;DHT22;8791;50.876;4.342;2023-02-13T02:34:26;5.90;99.90
17348;DHT22;8791;50.876;4.342;2023-02-13T02:37:09;5.90;99.90
17348;DHT22;8791;50.876;4.342;2023-02-13T02:39:48;5.80;99.90
17348;DHT22;8791;50.876;4.342;2023-02-13T02:42:28;5.80;99.90
17348;DHT22;8791;50.876;4.342;2023-02-13T02:45:04;6.00;99.90
17348;DHT22;8791;50.876;4.342;2023-02-13T02:47:40;5.90;99.90
17348;DHT22;8791;50.876;4.342;2023-02-13T02:50:34;5.90;99.90
17348;DHT22;8791;50.876;4.342;2023-02-13T02:53:20;5.80;99.90
17348;DHT22;8791;50.876;4.342;2023-02-13T02:55:53;5.80;99.90
17348;DHT22;8791;50.876;4.342;2023-02-13T02:58:26;5.60;99.90
17348;DHT22;8791;50.876;4.342;2023-02-13T03:01:15;5.60;99.90
17348;DHT22;8791;50.876;4.342;2023-02-13T03:04:00;5.70;99.90
17348;DHT22;8791;50.876;4.342;2023-02-13T03:06:50;5.70;99.90
17348;DHT22;8791;50.876;4.342;2023-02-13T03:09:22;5.60;99.90
17348;DHT22;8791;50.876;4.342;2023-02-13T03:12:09;5.70;99.90
17348;DHT22;8791;50.876;4.342;2023-02-13T03:14:55;5.60;99.90
17348;DHT22;8791;50.876;4.342;2023-02-13T03:17:21;5.50;99.90
17348;DHT22;8791;50.876;4.342;2023-02-13T03:20:13;5.50;99.90
17348;DHT22;8791;50.876;4.342;2023-02-13T03:23:14;5.50;99.90
17348;DHT22;8791;50.876;4.342;2023-02-13T03:26:02;5.60;99.90
17348;DHT22;8791;50.876;4.342;2023-02-13T03:28:37;5.60;99.90
17348;DHT22;8791;50.876;4.342;2023-02-13T03:31:30;5.60;99.90
17348;DHT22;8791;50.876;4.342;2023-02-13T03:34:01;5.50;99.90
17348;DHT22;8791;50.876;4.342;2023-02-13T03:36:36;5.40;99.90
17348;DHT22;8791;50.876;4.342;2023-02-13T03:39:31;5.40;99.90
17348;DHT22;8791;50.876;4.342;2023-02-13T03:42:03;5.30;99.90
17348;DHT22;8791;50.876;4.342;2023-02-13T03:44:33;5.30;99.90
17348;DHT22;8791;50.876;4.342;2023-02-13T03:47:03;5.30;99.90
17348;DHT22;8791;50.876;4.342;2023-02-13T03:49:35;5.30;99.90
17348;DHT22;8791;50.876;4.342;2023-02-13T03:52:24;5.30;99.90
17348;DHT22;8791;50.876;4.342;2023-02-13T03:54:55;5.30;99.90
17348;DHT22;8791;50.876;4.342;2023-02-13T03:57:43;5.20;99.90
17348;DHT22;8791;50.876;4.342;2023-02-13T04:00:33;5.10;99.90
17348;DHT22;8791;50.876;4.342;2023-02-13T04:03:07;5.20;99.90
17348;DHT22;8791;50.876;4.342;2023-02-13T04:05:40;5.10;99.90
17348;DHT22;8791;50.876;4.342;2023-02-13T04:08:08;5.10;99.90
17348;DHT22;8791;50.876;4.342;2023-02-13T04:10:41;4.90;99.90
17348;DHT22;8791;50.876;4.342;2023-02-13T04:13:13;4.90;99.90
17348;DHT22;8791;50.876;4.342;2023-02-13T04:15:46;4.90;99.90
17348;DHT22;8791;50.876;4.342;2023-02-13T04:18:17;4.80;99.90
17348;DHT22;8791;50.876;4.342;2023-02-13T04:20:46;4.70;99.90
17348;DHT22;8791;50.876;4.342;2023-02-13T04:23:13;5.00;99.90
17348;DHT22;8791;50.876;4.342;2023-02-13T04:25:44;5.10;99.90
17348;DHT22;8791;50.876;4.342;2023-02-13T04:28:12;5.00;99.90
17348;DHT22;8791;50.876;4.342;2023-02-13T04:30:39;4.90;99.90
17348;DHT22;8791;50.876;4.342;2023-02-13T04:33:06;4.80;99.90
17348;DHT22;8791;50.876;4.342;2023-02-13T04:35:33;4.90;99.90
17348;DHT22;8791;50.876;4.342;2023-02-13T04:38:00;4.80;99.90
17348;DHT22;8791;50.876;4.342;2023-02-13T04:40:27;4.70;99.90
17348;DHT22;8791;50.876;4.342;2023-02-13T04:42:55;4.70;99.90
17348;DHT22;8791;50.876;4.342;2023-02-13T04:45:22;4.70;99.90
17348;DHT22;8791;50.876;4.342;2023-02-13T04:47:50;4.60;99.90
17348;DHT22;8791;50.876;4.342;2023-02-13T04:50:18;4.70;99.90
17348;DHT22;8791;50.876;4.342;2023-02-13T04:52:45;4.70;99.90
17348;DHT22;8791;50.876;4.342;2023-02-13T04:55:12;4.70;99.90
17348;DHT22;8791;50.876;4.342;2023-02-13T04:57:39;4.80;99.90
17348;DHT22;8791;50.876;4.342;2023-02-13T05:00:09;4.70;99.90
17348;DHT22;8791;50.876;4.342;2023-02-13T05:02:36;4.90;99.90
17348;DHT22;8791;50.876;4.342;2023-02-13T05:05:03;4.90;99.90
17348;DHT22;8791;50.876;4.342;2023-02-13T05:07:30;4.80;99.90
17348;DHT22;8791;50.876;4.342;2023-02-13T05:09:57;4.70;99.90
17348;DHT22;8791;50.876;4.342;2023-02-13T05:12:24;4.80;99.90
17348;DHT22;8791;50.876;4.342;2023-02-13T05:14:50;4.90;99.90
17348;DHT22;8791;50.876;4.342;2023-02-13T05:17:19;4.70;99.90
17348;DHT22;8791;50.876;4.342;2023-02-13T05:19:45;4.80;99.90
17348;DHT22;8791;50.876;4.342;2023-02-13T05:22:12;4.70;99.90
17348;DHT22;8791;50.876;4.342;2023-02-13T05:24:56;4.80;99.90
17348;DHT22;8791;50.876;4.342;2023-02-13T05:27:23;4.90;99.90
17348;DHT22;8791;50.876;4.342;2023-02-13T05:29:50;4.80;99.90
17348;DHT22;8791;50.876;4.342;2023-02-13T05:32:16;4.90;99.90
17348;DHT22;8791;50.876;4.342;2023-02-13T05:34:45;4.80;99.90
17348;DHT22;8791;50.876;4.342;2023-02-13T05:37:11;4.80;99.90
17348;DHT22;8791;50.876;4.342;2023-02-13T05:39:38;4.80;99.90
17348;DHT22;8791;50.876;4.342;2023-02-13T05:42:05;4.80;99.90
17348;DHT22;8791;50.876;4.342;2023-02-13T05:44:32;4.80;99.90
17348;DHT22;8791;50.876;4.342;2023-02-13T05:46:59;5.00;99.90
17348;DHT22;8791;50.876;4.342;2023-02-13T05:49:25;5.00;99.90
17348;DHT22;8791;50.876;4.342;2023-02-13T05:51:54;5.00;99.90
17348;DHT22;8791;50.876;4.342;2023-02-13T05:54:20;4.90;99.90
17348;DHT22;8791;50.876;4.342;2023-02-13T05:56:47;4.80;99.90
17348;DHT22;8791;50.876;4.342;2023-02-13T05:59:14;4.90;99.90
17348;DHT22;8791;50.876;4.342;2023-02-13T06:01:41;4.90;99.90
17348;DHT22;8791;50.876;4.342;2023-02-13T06:04:07;5.00;99.90
17348;DHT22;8791;50.876;4.342;2023-02-13T06:06:34;5.10;99.90
17348;DHT22;8791;50.876;4.342;2023-02-13T06:09:03;5.10;99.90
17348;DHT22;8791;50.876;4.342;2023-02-13T06:11:29;5.10;99.90
17348;DHT22;8791;50.876;4.342;2023-02-13T06:13:56;5.10;99.90
17348;DHT22;8791;50.876;4.342;2023-02-13T06:16:23;5.10;99.90
17348;DHT22;8791;50.876;4.342;2023-02-13T06:18:50;5.10;99.90
17348;DHT22;8791;50.876;4.342;2023-02-13T06:21:17;4.90;99.90
17348;DHT22;8791;50.876;4.342;2023-02-13T06:23:44;4.90;99.90
17348;DHT22;8791;50.876;4.342;2023-02-13T06:26:12;4.80;99.90
17348;DHT22;8791;50.876;4.342;2023-02-13T06:28:39;4.80;99.90
17348;DHT22;8791;50.876;4.342;2023-02-13T06:31:05;4.70;99.90
17348;DHT22;8791;50.876;4.342;2023-02-13T06:33:32;4.60;99.90
17348;DHT22;8791;50.876;4.342;2023-02-13T06:35:59;4.70;99.90
17348;DHT22;8791;50.876;4.342;2023-02-13T06:38:26;4.80;99.90
17348;DHT22;8791;50.876;4.342;2023-02-13T06:40:58;4.80;99.90
17348;DHT22;8791;50.876;4.342;2023-02-13T06:43:28;4.70;99.90
17348;DHT22;8791;50.876;4.342;2023-02-13T06:45:54;4.70;99.90
17348;DHT22;8791;50.876;4.342;2023-02-13T06:48:21;4.70;99.90
17348;DHT22;8791;50.876;4.342;2023-02-13T06:50:48;4.70;99.90
17348;DHT22;8791;50.876;4.342;2023-02-13T06:53:16;4.60;99.90
17348;DHT22;8791;50.876;4.342;2023-02-13T06:55:44;4.60;99.90
17348;DHT22;8791;50.876;4.342;2023-02-13T06:58:11;4.70;99.90
17348;DHT22;8791;50.876;4.342;2023-02-13T07:00:40;4.70;99.90
17348;DHT22;8791;50.876;4.342;2023-02-13T07:03:07;4.70;99.90
17348;DHT22;8791;50.876;4.342;2023-02-13T07:05:34;4.70;99.90
17348;DHT22;8791;50.876;4.342;2023-02-13T07:08:01;4.70;99.90
17348;DHT22;8791;50.876;4.342;2023-02-13T07:10:28;4.70;99.90
17348;DHT22;8791;50.876;4.342;2023-02-13T07:12:54;4.70;99.90
17348;DHT22;8791;50.876;4.342;2023-02-13T07:15:21;4.60;99.90
17348;DHT22;8791;50.876;4.342;2023-02-13T07:17:54;4.60;99.90
17348;DHT22;8791;50.876;4.342;2023-02-13T07:20:21;4.70;99.90
17348;DHT22;8791;50.876;4.342;2023-02-13T07:22:48;4.70;99.90
17348;DHT22;8791;50.876;4.342;2023-02-13T07:25:15;4.70;99.90
17348;DHT22;8791;50.876;4.342;2023-02-13T07:27:41;4.70;99.90
17348;DHT22;8791;50.876;4.342;2023-02-13T07:30:09;4.70;99.90
17348;DHT22;8791;50.876;4.342;2023-02-13T07:32:36;4.80;99.90
17348;DHT22;8791;50.876;4.342;2023-02-13T07:35:05;5.00;99.90
17348;DHT22;8791;50.876;4.342;2023-02-13T07:37:31;5.00;99.90
17348;DHT22;8791;50.876;4.342;2023-02-13T07:39:58;5.00;99.90
17348;DHT22;8791;50.876;4.342;2023-02-13T07:42:25;4.90;99.90
17348;DHT22;8791;50.876;4.342;2023-02-13T07:44:52;5.00;99.90
17348;DHT22;8791;50.876;4.342;2023-02-13T07:47:19;5.00;99.90
17348;DHT22;8791;50.876;4.342;2023-02-13T07:49:46;5.10;99.90
17348;DHT22;8791;50.876;4.342;2023-02-13T07:52:14;5.20;99.90
17348;DHT22;8791;50.876;4.342;2023-02-13T07:54:41;5.20;99.90
17348;DHT22;8791;50.876;4.342;2023-02-13T07:57:12;5.20;99.90
17348;DHT22;8791;50.876;4.342;2023-02-13T07:59:39;5.30;99.90
17348;DHT22;8791;50.876;4.342;2023-02-13T08:02:07;5.40;99.90
17348;DHT22;8791;50.876;4.342;2023-02-13T08:04:36;5.50;99.90
17348;DHT22;8791;50.876;4.342;2023-02-13T08:07:03;5.60;99.90
17348;DHT22;8791;50.876;4.342;2023-02-13T08:09:31;5.70;99.90
17348;DHT22;8791;50.876;4.342;2023-02-13T08:12:15;5.70;99.90
17348;DHT22;8791;50.876;4.342;2023-02-13T08:14:42;5.70;99.90
17348;DHT22;8791;50.876;4.342;2023-02-13T08:17:09;5.70;99.90
17348;DHT22;8791;50.876;4.342;2023-02-13T08:19:36;5.80;99.90
17348;DHT22;8791;50.876;4.342;2023-02-13T08:22:03;5.90;99.90
17348;DHT22;8791;50.876;4.342;2023-02-13T08:24:31;5.90;99.90
17348;DHT22;8791;50.876;4.342;2023-02-13T08:26:58;6.10;99.90
17348;DHT22;8791;50.876;4.342;2023-02-13T08:29:25;6.20;99.90
17348;DHT22;8791;50.876;4.342;2023-02-13T08:31:51;6.30;99.90
17348;DHT22;8791;50.876;4.342;2023-02-13T08:34:18;6.50;99.90
17348;DHT22;8791;50.876;4.342;2023-02-13T08:36:45;6.70;99.90
17348;DHT22;8791;50.876;4.342;2023-02-13T08:39:12;6.70;99.90
17348;DHT22;8791;50.876;4.342;2023-02-13T08:41:40;6.80;99.90
17348;DHT22;8791;50.876;4.342;2023-02-13T08:44:08;6.90;99.90
17348;DHT22;8791;50.876;4.342;2023-02-13T08:46:35;6.90;99.90
17348;DHT22;8791;50.876;4.342;2023-02-13T08:49:02;7.00;99.90
17348;DHT22;8791;50.876;4.342;2023-02-13T08:51:29;7.10;99.90
17348;DHT22;8791;50.876;4.342;2023-02-13T08:53:56;7.10;99.90
17348;DHT22;8791;50.876;4.342;2023-02-13T08:56:23;7.20;99.90
17348;DHT22;8791;50.876;4.342;2023-02-13T08:58:51;7.30;99.90
17348;DHT22;8791;50.876;4.342;2023-02-13T09:01:18;7.50;99.90
17348;DHT22;8791;50.876;4.342;2023-02-13T09:03:45;7.70;99.90
17348;DHT22;8791;50.876;4.342;2023-02-13T09:06:12;8.00;99.90
17348;DHT22;8791;50.876;4.342;2023-02-13T09:08:39;8.20;99.90
17348;DHT22;8791;50.876;4.342;2023-02-13T09:11:06;8.30;99.90
17348;DHT22;8791;50.876;4.342;2023-02-13T09:13:34;8.50;99.90
17348;DHT22;8791;50.876;4.342;2023-02-13T09:16:04;8.60;99.90
17348;DHT22;8791;50.876;4.342;2023-02-13T09:18:32;8.70;99.90
17348;DHT22;8791;50.876;4.342;2023-02-13T09:21:00;8.70;99.90
17348;DHT22;8791;50.876;4.342;2023-02-13T09:23:30;8.80;99.90
17348;DHT22;8791;50.876;4.342;2023-02-13T09:25:58;8.80;99.90
17348;DHT22;8791;50.876;4.342;2023-02-13T09:28:26;8.80;99.90
17348;DHT22;8791;50.876;4.342;2023-02-13T09:30:53;8.70;99.90
17348;DHT22;8791;50.876;4.342;2023-02-13T09:33:21;8.80;99.90
17348;DHT22;8791;50.876;4.342;2023-02-13T09:35:49;8.80;99.90
17348;DHT22;8791;50.876;4.342;2023-02-13T09:38:16;8.80;99.90
17348;DHT22;8791;50.876;4.342;2023-02-13T09:40:46;8.80;99.90
17348;DHT22;8791;50.876;4.342;2023-02-13T09:43:21;9.00;99.90
17348;DHT22;8791;50.876;4.342;2023-02-13T09:45:49;9.10;99.90
17348;DHT22;8791;50.876;4.342;2023-02-13T09:48:23;9.20;99.90
17348;DHT22;8791;50.876;4.342;2023-02-13T09:50:53;9.10;99.90
17348;DHT22;8791;50.876;4.342;2023-02-13T09:53:22;9.20;99.90
17348;DHT22;8791;50.876;4.342;2023-02-13T09:55:57;9.30;99.90
17348;DHT22;8791;50.876;4.342;2023-02-13T09:58:38;9.40;99.90
17348;DHT22;8791;50.876;4.342;2023-02-13T10:01:24;9.30;99.90
17348;DHT22;8791;50.876;4.342;2023-02-13T10:04:13;9.20;99.90
17348;DHT22;8791;50.876;4.342;2023-02-13T10:06:44;9.30;99.90
17348;DHT22;8791;50.876;4.342;2023-02-13T10:09:22;9.40;99.90
17348;DHT22;8791;50.876;4.342;2023-02-13T10:15:14;9.60;99.90
17348;DHT22;8791;50.876;4.342;2023-02-13T10:17:44;9.60;99.90
17348;DHT22;8791;50.876;4.342;2023-02-13T10:20:24;9.50;99.90
17348;DHT22;8791;50.876;4.342;2023-02-13T10:22:56;9.70;99.90
17348;DHT22;8791;50.876;4.342;2023-02-13T10:25:26;9.90;99.90
17348;DHT22;8791;50.876;4.342;2023-02-13T10:27:56;9.90;99.90
17348;DHT22;8791;50.876;4.342;2023-02-13T10:30:27;9.80;99.90
17348;DHT22;8791;50.876;4.342;2023-02-13T10:32:59;9.90;99.90
17348;DHT22;8791;50.876;4.342;2023-02-13T10:35:52;9.60;99.90
17348;DHT22;8791;50.876;4.342;2023-02-13T10:38:22;9.50;99.90
17348;DHT22;8791;50.876;4.342;2023-02-13T10:41:05;9.60;99.90
17348;DHT22;8791;50.876;4.342;2023-02-13T10:43:38;9.80;99.90
17348;DHT22;8791;50.876;4.342;2023-02-13T10:46:16;10.00;99.90
17348;DHT22;8791;50.876;4.342;2023-02-13T10:48:56;9.90;99.90
17348;DHT22;8791;50.876;4.342;2023-02-13T10:51:29;10.20;99.90
17348;DHT22;8791;50.876;4.342;2023-02-13T10:54:16;10.10;99.90
17348;DHT22;8791;50.876;4.342;2023-02-13T10:56:52;10.30;99.90
17348;DHT22;8791;50.876;4.342;2023-02-13T10:59:39;10.40;99.90
17348;DHT22;8791;50.876;4.342;2023-02-13T11:02:22;10.40;99.90
17348;DHT22;8791;50.876;4.342;2023-02-13T11:04:51;10.50;99.90
17348;DHT22;8791;50.876;4.342;2023-02-13T11:07:22;10.60;99.90
17348;DHT22;8791;50.876;4.342;2023-02-13T11:09:52;11.00;99.90
17348;DHT22;8791;50.876;4.342;2023-02-13T11:12:25;11.10;99.90
17348;DHT22;8791;50.876;4.342;2023-02-13T11:14:56;11.20;99.90
17348;DHT22;8791;50.876;4.342;2023-02-13T11:17:24;11.00;99.90
17348;DHT22;8791;50.876;4.342;2023-02-13T11:19:54;10.80;99.90
17348;DHT22;8791;50.876;4.342;2023-02-13T11:22:30;10.70;99.90
17348;DHT22;8791;50.876;4.342;2023-02-13T11:25:01;10.80;99.90
17348;DHT22;8791;50.876;4.342;2023-02-13T11:27:31;10.70;99.90
17348;DHT22;8791;50.876;4.342;2023-02-13T11:30:00;10.70;99.90
17348;DHT22;8791;50.876;4.342;2023-02-13T11:32:28;10.80;99.90
17348;DHT22;8791;50.876;4.342;2023-02-13T11:34:55;10.90;99.90
17348;DHT22;8791;50.876;4.342;2023-02-13T11:37:27;10.90;99.90
17348;DHT22;8791;50.876;4.342;2023-02-13T11:39:56;10.90;99.90
17348;DHT22;8791;50.876;4.342;2023-02-13T11:42:27;10.80;99.90
17348;DHT22;8791;50.876;4.342;2023-02-13T11:45:00;10.80;99.90
17348;DHT22;8791;50.876;4.342;2023-02-13T11:47:33;10.90;99.90
17348;DHT22;8791;50.876;4.342;2023-02-13T11:50:01;11.30;99.90
17348;DHT22;8791;50.876;4.342;2023-02-13T11:52:31;11.50;99.90
17348;DHT22;8791;50.876;4.342;2023-02-13T11:55:00;11.40;99.90
17348;DHT22;8791;50.876;4.342;2023-02-13T11:57:30;11.30;99.90
17348;DHT22;8791;50.876;4.342;2023-02-13T11:59:59;11.10;99.90
17348;DHT22;8791;50.876;4.342;2023-02-13T12:02:27;11.20;99.90
17348;DHT22;8791;50.876;4.342;2023-02-13T12:05:14;11.20;99.90
17348;DHT22;8791;50.876;4.342;2023-02-13T12:07:43;11.50;99.90
17348;DHT22;8791;50.876;4.342;2023-02-13T12:10:17;11.50;99.90
17348;DHT22;8791;50.876;4.342;2023-02-13T12:12:52;11.50;99.90
17348;DHT22;8791;50.876;4.342;2023-02-13T12:15:22;11.60;99.90
17348;DHT22;8791;50.876;4.342;2023-02-13T12:18:03;11.60;99.90
17348;DHT22;8791;50.876;4.342;2023-02-13T12:20:38;11.70;99.90
17348;DHT22;8791;50.876;4.342;2023-02-13T12:23:16;12.10;99.90
17348;DHT22;8791;50.876;4.342;2023-02-13T12:25:52;12.10;99.90
17348;DHT22;8791;50.876;4.342;2023-02-13T12:28:33;12.00;99.90
17348;DHT22;8791;50.876;4.342;2023-02-13T12:31:29;11.90;99.90
17348;DHT22;8791;50.876;4.342;2023-02-13T12:34:51;11.90;99.90
17348;DHT22;8791;50.876;4.342;2023-02-13T12:37:33;12.00;99.90
17348;DHT22;8791;50.876;4.342;2023-02-13T12:40:19;12.20;99.90
17348;DHT22;8791;50.876;4.342;2023-02-13T12:42:59;12.20;99.90
17348;DHT22;8791;50.876;4.342;2023-02-13T12:45:36;12.20;99.90
17348;DHT22;8791;50.876;4.342;2023-02-13T12:48:19;12.10;99.90
17348;DHT22;8791;50.876;4.342;2023-02-13T12:50:56;12.00;99.90
17348;DHT22;8791;50.876;4.342;2023-02-13T12:53:39;11.90;99.90
17348;DHT22;8791;50.876;4.342;2023-02-13T12:56:18;12.00;99.90
17348;DHT22;8791;50.876;4.342;2023-02-13T12:59:02;12.10;99.90
17348;DHT22;8791;50.876;4.342;2023-02-13T13:04:42;12.40;99.90
17348;DHT22;8791;50.876;4.342;2023-02-13T13:07:23;12.40;99.90
17348;DHT22;8791;50.876;4.342;2023-02-13T13:10:02;12.40;99.90
17348;DHT22;8791;50.876;4.342;2023-02-13T13:12:45;12.40;99.90
17348;DHT22;8791;50.876;4.342;2023-02-13T13:15:17;12.50;99.90
17348;DHT22;8791;50.876;4.342;2023-02-13T13:17:56;12.60;99.90
17348;DHT22;8791;50.876;4.342;2023-02-13T13:20:43;12.30;99.90
17348;DHT22;8791;50.876;4.342;2023-02-13T13:23:19;12.40;99.90
17348;DHT22;8791;50.876;4.342;2023-02-13T13:25:52;12.50;99.90
17348;DHT22;8791;50.876;4.342;2023-02-13T13:28:27;12.50;99.90
17348;DHT22;8791;50.876;4.342;2023-02-13T13:30:56;12.50;99.90
17348;DHT22;8791;50.876;4.342;2023-02-13T13:33:25;12.40;99.90
17348;DHT22;8791;50.876;4.342;2023-02-13T13:35:57;12.50;99.90
17348;DHT22;8791;50.876;4.342;2023-02-13T13:38:36;12.40;99.90
17348;DHT22;8791;50.876;4.342;2023-02-13T13:41:09;12.40;99.90
17348;DHT22;8791;50.876;4.342;2023-02-13T13:43:49;12.50;99.90
17348;DHT22;8791;50.876;4.342;2023-02-13T13:46:30;12.70;99.90
17348;DHT22;8791;50.876;4.342;2023-02-13T13:49:13;12.90;99.90
17348;DHT22;8791;50.876;4.342;2023-02-13T13:51:43;12.90;99.90
17348;DHT22;8791;50.876;4.342;2023-02-13T13:54:22;12.80;99.90
17348;DHT22;8791;50.876;4.342;2023-02-13T13:57:04;12.70;99.90
17348;DHT22;8791;50.876;4.342;2023-02-13T14:00:02;12.80;99.90
17348;DHT22;8791;50.876;4.342;2023-02-13T14:02:48;12.70;99.90
17348;DHT22;8791;50.876;4.342;2023-02-13T14:05:25;12.80;99.90
17348;DHT22;8791;50.876;4.342;2023-02-13T14:07:54;12.80;99.90
17348;DHT22;8791;50.876;4.342;2023-02-13T14:11:01;12.70;99.90
17348;DHT22;8791;50.876;4.342;2023-02-13T14:13:30;12.70;99.90
17348;DHT22;8791;50.876;4.342;2023-02-13T14:15:58;12.60;99.90
17348;DHT22;8791;50.876;4.342;2023-02-13T14:18:26;12.40;99.90
17348;DHT22;8791;50.876;4.342;2023-02-13T14:20:55;12.50;99.90
17348;DHT22;8791;50.876;4.342;2023-02-13T14:23:34;12.70;99.90
17348;DHT22;8791;50.876;4.342;2023-02-13T14:26:32;12.50;99.90
17348;DHT22;8791;50.876;4.342;2023-02-13T14:29:20;12.60;99.90
17348;DHT22;8791;50.876;4.342;2023-02-13T14:32:16;12.70;99.90
17348;DHT22;8791;50.876;4.342;2023-02-13T14:34:51;12.80;99.90
17348;DHT22;8791;50.876;4.342;2023-02-13T14:37:22;12.90;99.90
17348;DHT22;8791;50.876;4.342;2023-02-13T14:40:28;12.90;99.90
17348;DHT22;8791;50.876;4.342;2023-02-13T14:42:59;13.00;99.90
17348;DHT22;8791;50.876;4.342;2023-02-13T14:45:29;13.10;99.90
17348;DHT22;8791;50.876;4.342;2023-02-13T14:48:04;13.20;99.90
17348;DHT22;8791;50.876;4.342;2023-02-13T14:50:36;13.10;99.90
17348;DHT22;8791;50.876;4.342;2023-02-13T14:53:09;13.00;99.90
17348;DHT22;8791;50.876;4.342;2023-02-13T14:55:42;13.10;99.90
17348;DHT22;8791;50.876;4.342;2023-02-13T14:58:15;13.10;99.90
17348;DHT22;8791;50.876;4.342;2023-02-13T15:00:53;13.00;99.90
17348;DHT22;8791;50.876;4.342;2023-02-13T15:03:27;13.00;99.90
17348;DHT22;8791;50.876;4.342;2023-02-13T15:05:58;13.00;99.90
17348;DHT22;8791;50.876;4.342;2023-02-13T15:08:27;13.10;99.90
17348;DHT22;8791;50.876;4.342;2023-02-13T15:10:56;13.10;99.90
17348;DHT22;8791;50.876;4.342;2023-02-13T15:13:25;13.10;99.90
17348;DHT22;8791;50.876;4.342;2023-02-13T15:15:55;13.30;99.90
17348;DHT22;8791;50.876;4.342;2023-02-13T15:18:27;13.40;99.90
17348;DHT22;8791;50.876;4.342;2023-02-13T15:20:56;13.50;99.90
17348;DHT22;8791;50.876;4.342;2023-02-13T15:23:27;13.50;99.90
17348;DHT22;8791;50.876;4.342;2023-02-13T15:25:58;13.40;99.90
17348;DHT22;8791;50.876;4.342;2023-02-13T15:28:27;13.40;99.90
17348;DHT22;8791;50.876;4.342;2023-02-13T15:30:55;13.40;99.90
17348;DHT22;8791;50.876;4.342;2023-02-13T15:33:25;13.40;99.90
17348;DHT22;8791;50.876;4.342;2023-02-13T15:35:57;13.40;99.90
17348;DHT22;8791;50.876;4.342;2023-02-13T15:38:26;13.40;99.90
17348;DHT22;8791;50.876;4.342;2023-02-13T15:40:58;13.40;99.90
17348;DHT22;8791;50.876;4.342;2023-02-13T15:43:32;13.50;99.90
17348;DHT22;8791;50.876;4.342;2023-02-13T15:46:02;13.50;99.90
17348;DHT22;8791;50.876;4.342;2023-02-13T15:48:33;13.50;99.90
17348;DHT22;8791;50.876;4.342;2023-02-13T15:51:01;13.50;99.90
17348;DHT22;8791;50.876;4.342;2023-02-13T15:53:28;13.40;99.90
17348;DHT22;8791;50.876;4.342;2023-02-13T15:55:57;13.30;99.90
17348;DHT22;8791;50.876;4.342;2023-02-13T15:58:28;13.20;99.90
17348;DHT22;8791;50.876;4.342;2023-02-13T16:01:00;13.20;99.90
17348;DHT22;8791;50.876;4.342;2023-02-13T16:03:32;13.30;99.90
17348;DHT22;8791;50.876;4.342;2023-02-13T16:06:00;13.30;99.90
17348;DHT22;8791;50.876;4.342;2023-02-13T16:08:33;13.30;99.90
17348;DHT22;8791;50.876;4.342;2023-02-13T16:11:20;13.40;99.90
17348;DHT22;8791;50.876;4.342;2023-02-13T16:14:09;13.40;99.90
17348;DHT22;8791;50.876;4.342;2023-02-13T16:16:43;13.40;99.90
17348;DHT22;8791;50.876;4.342;2023-02-13T16:19:37;13.20;99.90
17348;DHT22;8791;50.876;4.342;2023-02-13T16:22:17;13.40;99.90
17348;DHT22;8791;50.876;4.342;2023-02-13T16:24:49;13.50;99.90
17348;DHT22;8791;50.876;4.342;2023-02-13T16:27:18;13.20;99.90
17348;DHT22;8791;50.876;4.342;2023-02-13T16:29:51;13.20;99.90
17348;DHT22;8791;50.876;4.342;2023-02-13T16:32:25;13.30;99.90
17348;DHT22;8791;50.876;4.342;2023-02-13T16:34:54;13.30;99.90
17348;DHT22;8791;50.876;4.342;2023-02-13T16:37:29;13.20;99.90
17348;DHT22;8791;50.876;4.342;2023-02-13T16:39:57;13.20;99.90
17348;DHT22;8791;50.876;4.342;2023-02-13T16:42:42;13.00;99.90